sensor_id;sensor_type;location;lat;lon;timestamp;P1;durP1;ratioP1;P2;durP2;ratioP2
9467;SDS011;4772;52.382;9.752;2022-07-24T00:01:46;3.80;;;2.03;;
9467;SDS011;4772;52.382;9.752;2022-07-24T00:04:12;4.27;;;2.00;;
9467;SDS011;4772;52.382;9.752;2022-07-24T00:06:38;4.53;;;2.17;;
9467;SDS011;4772;52.382;9.752;2022-07-24T00:09:04;3.60;;;2.30;;
9467;SDS011;4772;52.382;9.752;2022-07-24T00:11:31;4.10;;;2.40;;
9467;SDS011;4772;52.382;9.752;2022-07-24T00:13:57;2.53;;;2.30;;
9467;SDS011;4772;52.382;9.752;2022-07-24T00:16:23;4.57;;;2.50;;
9467;SDS011;4772;52.382;9.752;2022-07-24T00:18:49;2.80;;;2.00;;
9467;SDS011;4772;52.382;9.752;2022-07-24T00:21:15;3.97;;;2.00;;
9467;SDS011;4772;52.382;9.752;2022-07-24T00:23:41;2.67;;;2.10;;
9467;SDS011;4772;52.382;9.752;2022-07-24T00:26:08;2.10;;;1.80;;
9467;SDS011;4772;52.382;9.752;2022-07-24T00:28:34;3.73;;;1.90;;
9467;SDS011;4772;52.382;9.752;2022-07-24T00:31:00;2.83;;;1.93;;
9467;SDS011;4772;52.382;9.752;2022-07-24T00:33:26;3.07;;;1.87;;
9467;SDS011;4772;52.382;9.752;2022-07-24T00:35:52;4.03;;;1.90;;
9467;SDS011;4772;52.382;9.752;2022-07-24T00:38:18;4.27;;;1.97;;
9467;SDS011;4772;52.382;9.752;2022-07-24T00:40:44;3.10;;;2.00;;
9467;SDS011;4772;52.382;9.752;2022-07-24T00:43:10;2.47;;;1.80;;
9467;SDS011;4772;52.382;9.752;2022-07-24T00:45:37;3.07;;;2.03;;
9467;SDS011;4772;52.382;9.752;2022-07-24T00:48:04;2.70;;;2.37;;
9467;SDS011;4772;52.382;9.752;2022-07-24T00:50:30;2.13;;;1.90;;
9467;SDS011;4772;52.382;9.752;2022-07-24T00:52:56;2.30;;;2.10;;
9467;SDS011;4772;52.382;9.752;2022-07-24T00:55:23;4.50;;;2.10;;
9467;SDS011;4772;52.382;9.752;2022-07-24T00:57:49;4.40;;;2.10;;
9467;SDS011;4772;52.382;9.752;2022-07-24T01:00:16;6.30;;;2.23;;
9467;SDS011;4772;52.382;9.752;2022-07-24T01:02:42;3.87;;;2.07;;
9467;SDS011;4772;52.382;9.752;2022-07-24T01:05:09;2.37;;;1.90;;
9467;SDS011;4772;52.382;9.752;2022-07-24T01:07:35;3.33;;;2.20;;
9467;SDS011;4772;52.382;9.752;2022-07-24T01:10:01;2.83;;;2.00;;
9467;SDS011;4772;52.382;9.752;2022-07-24T01:12:29;2.10;;;1.90;;
9467;SDS011;4772;52.382;9.752;2022-07-24T01:14:55;2.83;;;2.00;;
9467;SDS011;4772;52.382;9.752;2022-07-24T01:17:21;2.40;;;1.93;;
9467;SDS011;4772;52.382;9.752;2022-07-24T01:19:47;3.37;;;1.97;;
9467;SDS011;4772;52.382;9.752;2022-07-24T01:22:13;2.77;;;2.10;;
9467;SDS011;4772;52.382;9.752;2022-07-24T01:24:39;2.70;;;2.00;;
9467;SDS011;4772;52.382;9.752;2022-07-24T01:27:05;2.70;;;1.90;;
9467;SDS011;4772;52.382;9.752;2022-07-24T01:29:32;2.60;;;2.00;;
9467;SDS011;4772;52.382;9.752;2022-07-24T01:31:58;2.90;;;2.10;;
9467;SDS011;4772;52.382;9.752;2022-07-24T01:34:24;3.73;;;2.50;;
9467;SDS011;4772;52.382;9.752;2022-07-24T01:36:51;3.07;;;2.70;;
9467;SDS011;4772;52.382;9.752;2022-07-24T01:39:17;4.30;;;2.70;;
9467;SDS011;4772;52.382;9.752;2022-07-24T01:41:43;3.43;;;2.30;;
9467;SDS011;4772;52.382;9.752;2022-07-24T01:44:09;3.53;;;2.40;;
9467;SDS011;4772;52.382;9.752;2022-07-24T01:46:35;3.43;;;2.30;;
9467;SDS011;4772;52.382;9.752;2022-07-24T01:49:01;2.77;;;2.30;;
9467;SDS011;4772;52.382;9.752;2022-07-24T01:51:27;4.10;;;2.40;;
9467;SDS011;4772;52.382;9.752;2022-07-24T01:53:53;3.30;;;2.33;;
9467;SDS011;4772;52.382;9.752;2022-07-24T01:56:19;2.60;;;2.40;;
9467;SDS011;4772;52.382;9.752;2022-07-24T01:58:45;3.47;;;2.30;;
9467;SDS011;4772;52.382;9.752;2022-07-24T02:01:11;3.57;;;2.27;;
9467;SDS011;4772;52.382;9.752;2022-07-24T02:03:37;3.13;;;2.50;;
9467;SDS011;4772;52.382;9.752;2022-07-24T02:06:04;3.83;;;2.37;;
9467;SDS011;4772;52.382;9.752;2022-07-24T02:08:30;3.43;;;2.47;;
9467;SDS011;4772;52.382;9.752;2022-07-24T02:10:56;2.97;;;2.40;;
9467;SDS011;4772;52.382;9.752;2022-07-24T02:13:22;3.60;;;2.50;;
9467;SDS011;4772;52.382;9.752;2022-07-24T02:15:50;2.80;;;2.50;;
9467;SDS011;4772;52.382;9.752;2022-07-24T02:18:17;2.70;;;2.47;;
9467;SDS011;4772;52.382;9.752;2022-07-24T02:20:43;4.33;;;2.80;;
9467;SDS011;4772;52.382;9.752;2022-07-24T02:23:09;4.17;;;2.70;;
9467;SDS011;4772;52.382;9.752;2022-07-24T02:25:35;3.10;;;2.77;;
9467;SDS011;4772;52.382;9.752;2022-07-24T02:28:01;3.43;;;2.80;;
9467;SDS011;4772;52.382;9.752;2022-07-24T02:30:27;3.33;;;2.80;;
9467;SDS011;4772;52.382;9.752;2022-07-24T02:32:53;6.57;;;3.30;;
9467;SDS011;4772;52.382;9.752;2022-07-24T02:35:19;5.00;;;3.20;;
9467;SDS011;4772;52.382;9.752;2022-07-24T02:37:45;5.03;;;3.30;;
9467;SDS011;4772;52.382;9.752;2022-07-24T02:40:12;4.67;;;3.40;;
9467;SDS011;4772;52.382;9.752;2022-07-24T02:42:38;6.60;;;3.33;;
9467;SDS011;4772;52.382;9.752;2022-07-24T02:45:05;4.17;;;3.30;;
9467;SDS011;4772;52.382;9.752;2022-07-24T02:47:31;4.60;;;3.20;;
9467;SDS011;4772;52.382;9.752;2022-07-24T02:49:57;3.87;;;2.97;;
9467;SDS011;4772;52.382;9.752;2022-07-24T02:52:23;4.47;;;3.27;;
9467;SDS011;4772;52.382;9.752;2022-07-24T02:54:49;4.47;;;3.00;;
9467;SDS011;4772;52.382;9.752;2022-07-24T02:57:15;3.30;;;2.90;;
9467;SDS011;4772;52.382;9.752;2022-07-24T02:59:41;3.33;;;3.03;;
9467;SDS011;4772;52.382;9.752;2022-07-24T03:02:10;5.23;;;3.10;;
9467;SDS011;4772;52.382;9.752;2022-07-24T03:04:36;3.70;;;2.80;;
9467;SDS011;4772;52.382;9.752;2022-07-24T03:07:02;3.80;;;2.63;;
9467;SDS011;4772;52.382;9.752;2022-07-24T03:09:28;4.80;;;2.93;;
9467;SDS011;4772;52.382;9.752;2022-07-24T03:11:54;4.17;;;2.90;;
9467;SDS011;4772;52.382;9.752;2022-07-24T03:14:20;3.10;;;2.80;;
9467;SDS011;4772;52.382;9.752;2022-07-24T03:16:45;2.93;;;2.57;;
9467;SDS011;4772;52.382;9.752;2022-07-24T03:19:11;5.30;;;2.97;;
9467;SDS011;4772;52.382;9.752;2022-07-24T03:21:38;3.30;;;2.70;;
9467;SDS011;4772;52.382;9.752;2022-07-24T03:24:03;4.07;;;2.90;;
9467;SDS011;4772;52.382;9.752;2022-07-24T03:26:29;2.67;;;2.47;;
9467;SDS011;4772;52.382;9.752;2022-07-24T03:28:55;3.30;;;2.83;;
9467;SDS011;4772;52.382;9.752;2022-07-24T03:31:21;7.33;;;3.10;;
9467;SDS011;4772;52.382;9.752;2022-07-24T03:33:47;3.40;;;3.10;;
9467;SDS011;4772;52.382;9.752;2022-07-24T03:36:13;4.17;;;3.17;;
9467;SDS011;4772;52.382;9.752;2022-07-24T03:38:40;3.07;;;2.77;;
9467;SDS011;4772;52.382;9.752;2022-07-24T03:41:05;5.10;;;2.70;;
9467;SDS011;4772;52.382;9.752;2022-07-24T03:43:31;4.60;;;3.03;;
9467;SDS011;4772;52.382;9.752;2022-07-24T03:45:58;3.10;;;2.80;;
9467;SDS011;4772;52.382;9.752;2022-07-24T03:48:24;3.93;;;2.53;;
9467;SDS011;4772;52.382;9.752;2022-07-24T03:50:50;3.57;;;2.63;;
9467;SDS011;4772;52.382;9.752;2022-07-24T03:53:16;2.93;;;2.63;;
9467;SDS011;4772;52.382;9.752;2022-07-24T03:55:41;3.63;;;2.67;;
9467;SDS011;4772;52.382;9.752;2022-07-24T03:58:08;3.30;;;2.87;;
9467;SDS011;4772;52.382;9.752;2022-07-24T04:00:34;4.13;;;2.80;;
9467;SDS011;4772;52.382;9.752;2022-07-24T04:02:59;4.17;;;2.60;;
9467;SDS011;4772;52.382;9.752;2022-07-24T04:05:25;5.40;;;2.77;;
9467;SDS011;4772;52.382;9.752;2022-07-24T04:07:51;3.27;;;2.53;;
9467;SDS011;4772;52.382;9.752;2022-07-24T04:10:18;3.27;;;2.40;;
9467;SDS011;4772;52.382;9.752;2022-07-24T04:12:44;3.20;;;2.87;;
9467;SDS011;4772;52.382;9.752;2022-07-24T04:15:11;3.93;;;2.70;;
9467;SDS011;4772;52.382;9.752;2022-07-24T04:17:37;3.27;;;2.60;;
9467;SDS011;4772;52.382;9.752;2022-07-24T04:20:04;5.40;;;2.53;;
9467;SDS011;4772;52.382;9.752;2022-07-24T04:22:30;3.23;;;2.40;;
9467;SDS011;4772;52.382;9.752;2022-07-24T04:24:56;4.37;;;2.67;;
9467;SDS011;4772;52.382;9.752;2022-07-24T04:27:22;3.17;;;2.60;;
9467;SDS011;4772;52.382;9.752;2022-07-24T04:29:48;2.50;;;2.20;;
9467;SDS011;4772;52.382;9.752;2022-07-24T04:32:14;3.17;;;2.67;;
9467;SDS011;4772;52.382;9.752;2022-07-24T04:34:40;3.60;;;2.43;;
9467;SDS011;4772;52.382;9.752;2022-07-24T04:37:06;4.13;;;2.50;;
9467;SDS011;4772;52.382;9.752;2022-07-24T04:39:32;2.40;;;2.20;;
9467;SDS011;4772;52.382;9.752;2022-07-24T04:41:58;4.37;;;2.40;;
9467;SDS011;4772;52.382;9.752;2022-07-24T04:44:24;2.37;;;2.17;;
9467;SDS011;4772;52.382;9.752;2022-07-24T04:46:50;4.37;;;2.50;;
9467;SDS011;4772;52.382;9.752;2022-07-24T04:49:16;4.13;;;2.30;;
9467;SDS011;4772;52.382;9.752;2022-07-24T04:51:42;2.50;;;2.30;;
9467;SDS011;4772;52.382;9.752;2022-07-24T04:54:08;3.80;;;2.30;;
9467;SDS011;4772;52.382;9.752;2022-07-24T04:56:34;2.53;;;2.03;;
9467;SDS011;4772;52.382;9.752;2022-07-24T04:59:00;2.20;;;2.07;;
9467;SDS011;4772;52.382;9.752;2022-07-24T05:01:29;3.00;;;2.17;;
9467;SDS011;4772;52.382;9.752;2022-07-24T05:03:55;3.27;;;2.00;;
9467;SDS011;4772;52.382;9.752;2022-07-24T05:06:22;2.40;;;2.10;;
9467;SDS011;4772;52.382;9.752;2022-07-24T05:08:48;2.13;;;1.93;;
9467;SDS011;4772;52.382;9.752;2022-07-24T05:11:14;2.10;;;2.00;;
9467;SDS011;4772;52.382;9.752;2022-07-24T05:13:40;2.47;;;2.00;;
9467;SDS011;4772;52.382;9.752;2022-07-24T05:16:06;2.20;;;2.00;;
9467;SDS011;4772;52.382;9.752;2022-07-24T05:18:32;2.63;;;1.90;;
9467;SDS011;4772;52.382;9.752;2022-07-24T05:20:58;3.80;;;1.93;;
9467;SDS011;4772;52.382;9.752;2022-07-24T05:23:24;2.37;;;1.77;;
9467;SDS011;4772;52.382;9.752;2022-07-24T05:25:50;3.80;;;2.07;;
9467;SDS011;4772;52.382;9.752;2022-07-24T05:28:16;3.00;;;1.87;;
9467;SDS011;4772;52.382;9.752;2022-07-24T05:30:43;3.53;;;2.23;;
9467;SDS011;4772;52.382;9.752;2022-07-24T05:33:09;2.07;;;1.80;;
9467;SDS011;4772;52.382;9.752;2022-07-24T05:35:35;3.63;;;1.80;;
9467;SDS011;4772;52.382;9.752;2022-07-24T05:38:01;2.90;;;1.80;;
9467;SDS011;4772;52.382;9.752;2022-07-24T05:40:27;2.47;;;1.70;;
9467;SDS011;4772;52.382;9.752;2022-07-24T05:42:53;2.40;;;2.00;;
9467;SDS011;4772;52.382;9.752;2022-07-24T05:45:19;2.90;;;1.70;;
9467;SDS011;4772;52.382;9.752;2022-07-24T05:47:44;3.33;;;1.80;;
9467;SDS011;4772;52.382;9.752;2022-07-24T05:50:11;4.20;;;2.00;;
9467;SDS011;4772;52.382;9.752;2022-07-24T05:52:37;3.30;;;1.70;;
9467;SDS011;4772;52.382;9.752;2022-07-24T05:55:03;4.27;;;1.80;;
9467;SDS011;4772;52.382;9.752;2022-07-24T05:57:30;4.00;;;1.80;;
9467;SDS011;4772;52.382;9.752;2022-07-24T05:59:57;2.43;;;1.77;;
9467;SDS011;4772;52.382;9.752;2022-07-24T06:02:23;3.00;;;1.80;;
9467;SDS011;4772;52.382;9.752;2022-07-24T06:04:49;3.03;;;1.83;;
9467;SDS011;4772;52.382;9.752;2022-07-24T06:07:15;3.47;;;1.90;;
9467;SDS011;4772;52.382;9.752;2022-07-24T06:09:41;1.50;;;1.40;;
9467;SDS011;4772;52.382;9.752;2022-07-24T06:12:07;2.10;;;1.50;;
9467;SDS011;4772;52.382;9.752;2022-07-24T06:14:33;2.23;;;1.73;;
9467;SDS011;4772;52.382;9.752;2022-07-24T06:16:59;2.03;;;1.67;;
9467;SDS011;4772;52.382;9.752;2022-07-24T06:19:25;2.57;;;2.00;;
9467;SDS011;4772;52.382;9.752;2022-07-24T06:21:51;2.17;;;1.60;;
9467;SDS011;4772;52.382;9.752;2022-07-24T06:24:17;2.37;;;1.80;;
9467;SDS011;4772;52.382;9.752;2022-07-24T06:26:43;4.07;;;1.73;;
9467;SDS011;4772;52.382;9.752;2022-07-24T06:29:09;4.00;;;2.03;;
9467;SDS011;4772;52.382;9.752;2022-07-24T06:31:35;2.40;;;1.60;;
9467;SDS011;4772;52.382;9.752;2022-07-24T06:34:01;3.60;;;1.60;;
9467;SDS011;4772;52.382;9.752;2022-07-24T06:36:27;2.10;;;1.60;;
9467;SDS011;4772;52.382;9.752;2022-07-24T06:38:53;2.37;;;1.70;;
9467;SDS011;4772;52.382;9.752;2022-07-24T06:41:19;2.33;;;1.50;;
9467;SDS011;4772;52.382;9.752;2022-07-24T06:43:45;3.40;;;1.70;;
9467;SDS011;4772;52.382;9.752;2022-07-24T06:46:11;1.83;;;1.57;;
9467;SDS011;4772;52.382;9.752;2022-07-24T06:48:37;2.60;;;1.70;;
9467;SDS011;4772;52.382;9.752;2022-07-24T06:51:04;3.10;;;1.63;;
9467;SDS011;4772;52.382;9.752;2022-07-24T06:53:30;2.30;;;1.60;;
9467;SDS011;4772;52.382;9.752;2022-07-24T06:55:56;3.47;;;1.80;;
9467;SDS011;4772;52.382;9.752;2022-07-24T06:58:22;1.80;;;1.60;;
9467;SDS011;4772;52.382;9.752;2022-07-24T07:00:48;3.07;;;1.50;;
9467;SDS011;4772;52.382;9.752;2022-07-24T07:03:15;1.60;;;1.50;;
9467;SDS011;4772;52.382;9.752;2022-07-24T07:05:42;5.70;;;1.60;;
9467;SDS011;4772;52.382;9.752;2022-07-24T07:08:08;2.43;;;1.60;;
9467;SDS011;4772;52.382;9.752;2022-07-24T07:10:34;2.20;;;1.50;;
9467;SDS011;4772;52.382;9.752;2022-07-24T07:13:00;2.10;;;1.60;;
9467;SDS011;4772;52.382;9.752;2022-07-24T07:15:26;3.53;;;1.67;;
9467;SDS011;4772;52.382;9.752;2022-07-24T07:17:52;1.73;;;1.60;;
9467;SDS011;4772;52.382;9.752;2022-07-24T07:20:18;2.27;;;1.70;;
9467;SDS011;4772;52.382;9.752;2022-07-24T07:22:44;1.70;;;1.60;;
9467;SDS011;4772;52.382;9.752;2022-07-24T07:25:10;2.17;;;1.57;;
9467;SDS011;4772;52.382;9.752;2022-07-24T07:27:36;2.07;;;1.40;;
9467;SDS011;4772;52.382;9.752;2022-07-24T07:30:04;2.10;;;1.60;;
9467;SDS011;4772;52.382;9.752;2022-07-24T07:32:30;1.50;;;1.40;;
9467;SDS011;4772;52.382;9.752;2022-07-24T07:34:56;1.80;;;1.60;;
9467;SDS011;4772;52.382;9.752;2022-07-24T07:37:22;2.23;;;1.43;;
9467;SDS011;4772;52.382;9.752;2022-07-24T07:39:48;1.40;;;1.30;;
9467;SDS011;4772;52.382;9.752;2022-07-24T07:42:14;3.85;;;1.73;;
9467;SDS011;4772;52.382;9.752;2022-07-24T07:44:40;2.78;;;1.50;;
9467;SDS011;4772;52.382;9.752;2022-07-24T07:47:06;1.60;;;1.50;;
9467;SDS011;4772;52.382;9.752;2022-07-24T07:49:33;2.65;;;1.45;;
9467;SDS011;4772;52.382;9.752;2022-07-24T07:51:59;1.92;;;1.50;;
9467;SDS011;4772;52.382;9.752;2022-07-24T07:54:25;1.80;;;1.50;;
9467;SDS011;4772;52.382;9.752;2022-07-24T07:56:51;2.47;;;1.70;;
9467;SDS011;4772;52.382;9.752;2022-07-24T07:59:17;2.75;;;1.70;;
9467;SDS011;4772;52.382;9.752;2022-07-24T08:01:43;1.45;;;1.35;;
9467;SDS011;4772;52.382;9.752;2022-07-24T08:04:09;1.95;;;1.50;;
9467;SDS011;4772;52.382;9.752;2022-07-24T08:06:35;1.40;;;1.30;;
9467;SDS011;4772;52.382;9.752;2022-07-24T08:09:01;1.60;;;1.50;;
9467;SDS011;4772;52.382;9.752;2022-07-24T08:11:27;1.88;;;1.50;;
9467;SDS011;4772;52.382;9.752;2022-07-24T08:13:53;2.60;;;1.65;;
9467;SDS011;4772;52.382;9.752;2022-07-24T08:16:19;1.70;;;1.50;;
9467;SDS011;4772;52.382;9.752;2022-07-24T08:18:45;2.95;;;1.73;;
9467;SDS011;4772;52.382;9.752;2022-07-24T08:21:11;1.63;;;1.50;;
9467;SDS011;4772;52.382;9.752;2022-07-24T08:23:40;2.70;;;1.77;;
9467;SDS011;4772;52.382;9.752;2022-07-24T08:26:06;2.65;;;1.85;;
9467;SDS011;4772;52.382;9.752;2022-07-24T08:28:32;2.40;;;1.70;;
9467;SDS011;4772;52.382;9.752;2022-07-24T08:30:58;1.98;;;1.88;;
9467;SDS011;4772;52.382;9.752;2022-07-24T08:33:24;3.28;;;1.73;;
9467;SDS011;4772;52.382;9.752;2022-07-24T08:35:50;2.55;;;2.05;;
9467;SDS011;4772;52.382;9.752;2022-07-24T08:38:16;2.25;;;2.05;;
9467;SDS011;4772;52.382;9.752;2022-07-24T08:40:42;3.15;;;2.10;;
9467;SDS011;4772;52.382;9.752;2022-07-24T08:43:08;2.22;;;1.90;;
9467;SDS011;4772;52.382;9.752;2022-07-24T08:45:38;2.15;;;1.98;;
9467;SDS011;4772;52.382;9.752;2022-07-24T08:48:05;2.38;;;2.03;;
9467;SDS011;4772;52.382;9.752;2022-07-24T08:50:32;2.40;;;2.20;;
9467;SDS011;4772;52.382;9.752;2022-07-24T08:52:59;2.00;;;1.90;;
9467;SDS011;4772;52.382;9.752;2022-07-24T08:55:28;4.57;;;2.20;;
9467;SDS011;4772;52.382;9.752;2022-07-24T08:57:58;3.45;;;2.30;;
9467;SDS011;4772;52.382;9.752;2022-07-24T09:00:24;3.25;;;2.00;;
9467;SDS011;4772;52.382;9.752;2022-07-24T09:02:51;2.75;;;2.00;;
9467;SDS011;4772;52.382;9.752;2022-07-24T09:05:18;2.22;;;1.80;;
9467;SDS011;4772;52.382;9.752;2022-07-24T09:07:44;2.58;;;2.30;;
9467;SDS011;4772;52.382;9.752;2022-07-24T09:10:14;2.33;;;2.00;;
9467;SDS011;4772;52.382;9.752;2022-07-24T09:12:45;4.75;;;2.30;;
9467;SDS011;4772;52.382;9.752;2022-07-24T09:17:46;2.50;;;2.08;;
9467;SDS011;4772;52.382;9.752;2022-07-24T09:20:13;2.40;;;2.20;;
9467;SDS011;4772;52.382;9.752;2022-07-24T09:22:39;3.40;;;2.60;;
9467;SDS011;4772;52.382;9.752;2022-07-24T09:25:07;2.90;;;2.20;;
9467;SDS011;4772;52.382;9.752;2022-07-24T09:27:35;2.50;;;2.30;;
9467;SDS011;4772;52.382;9.752;2022-07-24T09:30:01;2.90;;;2.60;;
9467;SDS011;4772;52.382;9.752;2022-07-24T09:32:28;5.32;;;2.55;;
9467;SDS011;4772;52.382;9.752;2022-07-24T09:34:54;2.72;;;2.53;;
9467;SDS011;4772;52.382;9.752;2022-07-24T09:37:20;3.20;;;2.45;;
9467;SDS011;4772;52.382;9.752;2022-07-24T09:39:47;3.50;;;2.58;;
9467;SDS011;4772;52.382;9.752;2022-07-24T09:42:13;3.88;;;2.58;;
9467;SDS011;4772;52.382;9.752;2022-07-24T09:44:40;4.25;;;2.95;;
9467;SDS011;4772;52.382;9.752;2022-07-24T09:47:07;3.40;;;3.10;;
9467;SDS011;4772;52.382;9.752;2022-07-24T09:49:33;3.40;;;3.00;;
9467;SDS011;4772;52.382;9.752;2022-07-24T09:52:07;3.42;;;3.13;;
9467;SDS011;4772;52.382;9.752;2022-07-24T09:54:42;3.47;;;2.92;;
9467;SDS011;4772;52.382;9.752;2022-07-24T09:57:15;2.85;;;2.65;;
9467;SDS011;4772;52.382;9.752;2022-07-24T09:59:43;4.90;;;3.92;;
9467;SDS011;4772;52.382;9.752;2022-07-24T10:02:12;3.85;;;3.55;;
9467;SDS011;4772;52.382;9.752;2022-07-24T10:04:39;5.90;;;3.38;;
9467;SDS011;4772;52.382;9.752;2022-07-24T10:07:06;5.07;;;3.55;;
9467;SDS011;4772;52.382;9.752;2022-07-24T10:09:35;4.20;;;3.30;;
9467;SDS011;4772;52.382;9.752;2022-07-24T10:12:01;4.68;;;3.60;;
9467;SDS011;4772;52.382;9.752;2022-07-24T10:14:29;4.75;;;3.50;;
9467;SDS011;4772;52.382;9.752;2022-07-24T10:17:04;4.97;;;3.53;;
9467;SDS011;4772;52.382;9.752;2022-07-24T10:19:34;3.92;;;3.33;;
9467;SDS011;4772;52.382;9.752;2022-07-24T10:22:03;4.43;;;3.42;;
9467;SDS011;4772;52.382;9.752;2022-07-24T10:27:23;7.13;;;3.63;;
9467;SDS011;4772;52.382;9.752;2022-07-24T10:29:51;3.80;;;3.40;;
9467;SDS011;4772;52.382;9.752;2022-07-24T10:32:17;3.58;;;3.28;;
9467;SDS011;4772;52.382;9.752;2022-07-24T10:37:28;4.90;;;3.72;;
9467;SDS011;4772;52.382;9.752;2022-07-24T10:40:18;3.70;;;3.40;;
9467;SDS011;4772;52.382;9.752;2022-07-24T10:45:27;3.60;;;3.30;;
9467;SDS011;4772;52.382;9.752;2022-07-24T10:47:55;3.78;;;3.38;;
9467;SDS011;4772;52.382;9.752;2022-07-24T10:50:22;4.13;;;3.63;;
9467;SDS011;4772;52.382;9.752;2022-07-24T10:52:48;3.92;;;3.63;;
9467;SDS011;4772;52.382;9.752;2022-07-24T10:58:33;4.18;;;3.88;;
9467;SDS011;4772;52.382;9.752;2022-07-24T11:00:47;4.22;;;3.50;;
9467;SDS011;4772;52.382;9.752;2022-07-24T11:08:27;4.97;;;3.95;;
9467;SDS011;4772;52.382;9.752;2022-07-24T11:10:57;4.22;;;3.83;;
9467;SDS011;4772;52.382;9.752;2022-07-24T11:18:42;4.38;;;3.97;;
9467;SDS011;4772;52.382;9.752;2022-07-24T11:21:08;4.13;;;3.72;;
9467;SDS011;4772;52.382;9.752;2022-07-24T11:23:34;4.30;;;4.00;;
9467;SDS011;4772;52.382;9.752;2022-07-24T11:31:32;5.47;;;4.10;;
9467;SDS011;4772;52.382;9.752;2022-07-24T11:33:59;4.43;;;4.07;;
9467;SDS011;4772;52.382;9.752;2022-07-24T11:36:26;5.88;;;4.30;;
9467;SDS011;4772;52.382;9.752;2022-07-24T11:38:52;4.50;;;4.10;;
9467;SDS011;4772;52.382;9.752;2022-07-24T11:41:18;4.50;;;4.10;;
9467;SDS011;4772;52.382;9.752;2022-07-24T11:43:53;4.68;;;4.28;;
9467;SDS011;4772;52.382;9.752;2022-07-24T11:46:35;4.32;;;3.97;;
9467;SDS011;4772;52.382;9.752;2022-07-24T11:49:04;4.10;;;3.70;;
9467;SDS011;4772;52.382;9.752;2022-07-24T11:51:30;4.30;;;3.90;;
9467;SDS011;4772;52.382;9.752;2022-07-24T11:53:56;4.38;;;4.07;;
9467;SDS011;4772;52.382;9.752;2022-07-24T11:56:23;4.32;;;4.00;;
9467;SDS011;4772;52.382;9.752;2022-07-24T11:58:49;4.32;;;4.00;;
9467;SDS011;4772;52.382;9.752;2022-07-24T12:01:19;4.22;;;3.88;;
9467;SDS011;4772;52.382;9.752;2022-07-24T12:03:51;4.40;;;4.00;;
9467;SDS011;4772;52.382;9.752;2022-07-24T12:06:18;4.00;;;3.70;;
9467;SDS011;4772;52.382;9.752;2022-07-24T12:08:44;5.60;;;3.70;;
9467;SDS011;4772;52.382;9.752;2022-07-24T12:11:10;4.38;;;3.97;;
9467;SDS011;4772;52.382;9.752;2022-07-24T12:13:40;4.32;;;4.03;;
9467;SDS011;4772;52.382;9.752;2022-07-24T12:16:07;4.80;;;4.15;;
9467;SDS011;4772;52.382;9.752;2022-07-24T12:18:35;4.25;;;3.85;;
9467;SDS011;4772;52.382;9.752;2022-07-24T12:21:01;5.35;;;4.93;;
9467;SDS011;4772;52.382;9.752;2022-07-24T12:23:28;4.88;;;4.55;;
9467;SDS011;4772;52.382;9.752;2022-07-24T12:25:54;4.60;;;4.20;;
9467;SDS011;4772;52.382;9.752;2022-07-24T12:28:20;4.68;;;4.28;;
9467;SDS011;4772;52.382;9.752;2022-07-24T12:30:47;4.47;;;4.05;;
9467;SDS011;4772;52.382;9.752;2022-07-24T12:35:59;4.35;;;3.80;;
9467;SDS011;4772;52.382;9.752;2022-07-24T12:38:33;4.65;;;3.85;;
9467;SDS011;4772;52.382;9.752;2022-07-24T12:41:09;5.38;;;4.38;;
9467;SDS011;4772;52.382;9.752;2022-07-24T12:43:45;5.25;;;4.13;;
9467;SDS011;4772;52.382;9.752;2022-07-24T12:46:12;5.70;;;4.40;;
9467;SDS011;4772;52.382;9.752;2022-07-24T12:48:38;4.13;;;3.80;;
9467;SDS011;4772;52.382;9.752;2022-07-24T12:53:32;6.93;;;4.25;;
9467;SDS011;4772;52.382;9.752;2022-07-24T12:56:08;4.40;;;4.00;;
9467;SDS011;4772;52.382;9.752;2022-07-24T13:01:20;4.47;;;4.13;;
9467;SDS011;4772;52.382;9.752;2022-07-24T13:03:53;4.90;;;4.50;;
9467;SDS011;4772;52.382;9.752;2022-07-24T13:06:31;4.90;;;4.50;;
9467;SDS011;4772;52.382;9.752;2022-07-24T13:08:57;4.60;;;4.20;;
9467;SDS011;4772;52.382;9.752;2022-07-24T13:11:23;4.63;;;4.20;;
9467;SDS011;4772;52.382;9.752;2022-07-24T13:13:49;6.15;;;4.20;;
9467;SDS011;4772;52.382;9.752;2022-07-24T13:16:15;4.43;;;4.03;;
9467;SDS011;4772;52.382;9.752;2022-07-24T13:18:41;4.95;;;4.10;;
9467;SDS011;4772;52.382;9.752;2022-07-24T13:21:07;5.28;;;4.40;;
9467;SDS011;4772;52.382;9.752;2022-07-24T13:23:33;4.40;;;4.10;;
9467;SDS011;4772;52.382;9.752;2022-07-24T13:25:59;4.60;;;4.10;;
9467;SDS011;4772;52.382;9.752;2022-07-24T13:28:25;4.80;;;4.40;;
9467;SDS011;4772;52.382;9.752;2022-07-24T13:33:22;4.10;;;3.80;;
9467;SDS011;4772;52.382;9.752;2022-07-24T13:35:48;5.28;;;4.30;;
9467;SDS011;4772;52.382;9.752;2022-07-24T13:38:14;4.95;;;4.45;;
9467;SDS011;4772;52.382;9.752;2022-07-24T13:40:39;5.18;;;4.10;;
9467;SDS011;4772;52.382;9.752;2022-07-24T13:43:06;4.72;;;4.25;;
9467;SDS011;4772;52.382;9.752;2022-07-24T13:45:31;5.30;;;4.47;;
9467;SDS011;4772;52.382;9.752;2022-07-24T13:47:58;4.82;;;4.28;;
9467;SDS011;4772;52.382;9.752;2022-07-24T13:50:24;4.88;;;4.20;;
9467;SDS011;4772;52.382;9.752;2022-07-24T13:52:50;6.63;;;4.32;;
9467;SDS011;4772;52.382;9.752;2022-07-24T13:55:16;6.40;;;4.10;;
9467;SDS011;4772;52.382;9.752;2022-07-24T13:57:42;4.32;;;4.03;;
9467;SDS011;4772;52.382;9.752;2022-07-24T14:00:08;4.50;;;4.10;;
9467;SDS011;4772;52.382;9.752;2022-07-24T14:02:34;6.20;;;3.85;;
9467;SDS011;4772;52.382;9.752;2022-07-24T14:05:00;5.03;;;4.63;;
9467;SDS011;4772;52.382;9.752;2022-07-24T14:07:26;4.22;;;3.83;;
9467;SDS011;4772;52.382;9.752;2022-07-24T14:09:52;4.93;;;4.47;;
9467;SDS011;4772;52.382;9.752;2022-07-24T14:12:20;4.57;;;4.18;;
9467;SDS011;4772;52.382;9.752;2022-07-24T14:14:46;5.43;;;4.43;;
9467;SDS011;4772;52.382;9.752;2022-07-24T14:17:12;4.35;;;3.95;;
9467;SDS011;4772;52.382;9.752;2022-07-24T14:19:38;4.90;;;4.50;;
9467;SDS011;4772;52.382;9.752;2022-07-24T14:22:04;4.55;;;4.25;;
9467;SDS011;4772;52.382;9.752;2022-07-24T14:24:30;4.60;;;4.22;;
9467;SDS011;4772;52.382;9.752;2022-07-24T14:26:56;5.10;;;4.05;;
9467;SDS011;4772;52.382;9.752;2022-07-24T14:29:22;4.30;;;3.90;;
9467;SDS011;4772;52.382;9.752;2022-07-24T14:31:49;4.65;;;3.97;;
9467;SDS011;4772;52.382;9.752;2022-07-24T14:34:15;4.38;;;3.97;;
9467;SDS011;4772;52.382;9.752;2022-07-24T14:36:41;4.30;;;3.90;;
9467;SDS011;4772;52.382;9.752;2022-07-24T14:39:07;5.97;;;4.47;;
9467;SDS011;4772;52.382;9.752;2022-07-24T14:41:34;4.53;;;4.13;;
9467;SDS011;4772;52.382;9.752;2022-07-24T14:44:00;4.60;;;4.20;;
9467;SDS011;4772;52.382;9.752;2022-07-24T14:46:26;4.75;;;4.40;;
9467;SDS011;4772;52.382;9.752;2022-07-24T14:48:52;4.65;;;4.28;;
9467;SDS011;4772;52.382;9.752;2022-07-24T14:51:18;4.88;;;4.35;;
9467;SDS011;4772;52.382;9.752;2022-07-24T14:53:44;5.35;;;4.85;;
9467;SDS011;4772;52.382;9.752;2022-07-24T14:56:10;4.78;;;4.30;;
9467;SDS011;4772;52.382;9.752;2022-07-24T14:58:36;4.43;;;4.03;;
9467;SDS011;4772;52.382;9.752;2022-07-24T15:01:02;5.05;;;4.13;;
9467;SDS011;4772;52.382;9.752;2022-07-24T15:03:28;5.00;;;4.50;;
9467;SDS011;4772;52.382;9.752;2022-07-24T15:05:54;6.93;;;4.80;;
9467;SDS011;4772;52.382;9.752;2022-07-24T15:08:20;4.70;;;4.30;;
9467;SDS011;4772;52.382;9.752;2022-07-24T15:10:46;4.78;;;4.25;;
9467;SDS011;4772;52.382;9.752;2022-07-24T15:13:12;4.90;;;4.40;;
9467;SDS011;4772;52.382;9.752;2022-07-24T15:15:38;4.63;;;4.22;;
9467;SDS011;4772;52.382;9.752;2022-07-24T15:18:04;5.40;;;4.65;;
9467;SDS011;4772;52.382;9.752;2022-07-24T15:20:30;4.65;;;4.25;;
9467;SDS011;4772;52.382;9.752;2022-07-24T15:22:56;5.20;;;4.72;;
9467;SDS011;4772;52.382;9.752;2022-07-24T15:25:22;5.45;;;4.88;;
9467;SDS011;4772;52.382;9.752;2022-07-24T15:27:49;5.35;;;4.55;;
9467;SDS011;4772;52.382;9.752;2022-07-24T15:30:15;6.18;;;4.70;;
9467;SDS011;4772;52.382;9.752;2022-07-24T15:32:41;5.18;;;4.68;;
9467;SDS011;4772;52.382;9.752;2022-07-24T15:35:10;6.38;;;4.80;;
9467;SDS011;4772;52.382;9.752;2022-07-24T15:37:36;5.20;;;4.72;;
9467;SDS011;4772;52.382;9.752;2022-07-24T15:40:02;5.25;;;4.75;;
9467;SDS011;4772;52.382;9.752;2022-07-24T15:42:29;5.32;;;4.82;;
9467;SDS011;4772;52.382;9.752;2022-07-24T15:44:55;5.10;;;4.60;;
9467;SDS011;4772;52.382;9.752;2022-07-24T15:47:24;5.53;;;5.03;;
9467;SDS011;4772;52.382;9.752;2022-07-24T15:49:50;6.50;;;4.53;;
9467;SDS011;4772;52.382;9.752;2022-07-24T15:52:16;5.40;;;4.95;;